Time;durP1;ratioP1;P1;durP2;ratioP2;P2;SDS_P1;SDS_P2;PMS_P1;PMS_P2;Temp;Humidity;BMP_temperature;BMP_pressure;BME280_temperature;BME280_humidity;BME280_pressure;Samples;Min_cycle;Max_cycle;Signal;HPM_P1;HPM_P2
2023/03/11 00:00:49;;;;;;;;;;;;;;;;;;5058579;28;19916;-23
2023/03/11 00:03:15;;;;;;;;;;;;;;;;;;5058484;28;19913;-23
2023/03/11 00:05:41;;;;;;;;;;;;;;;;;;5058451;28;20301;-23
2023/03/11 00:08:07;;;;;;;;;;;;;;;;;;5058385;28;19944;-24
2023/03/11 00:10:33;;;;;;;;;;;;;;;;;;5058391;28;19909;-23
2023/03/11 00:12:59;;;;;;;;;;;;;;;;;;5057320;28;20252;-23
2023/03/11 00:15:25;;;;;;;;;;;;;;;;;;5058521;28;20366;-24
2023/03/11 00:17:51;;;;;;;;;;;;;;;;;;5058188;28;19916;-23
2023/03/11 00:20:17;;;;;;;;;;;;;;;;;;5058045;28;19913;-23
2023/03/11 00:22:43;;;;;;;;;;;;;;;;;;5058257;28;19963;-23
2023/03/11 00:25:09;;;;;;;;;;;;;;;;;;5058370;28;19919;-23
2023/03/11 00:27:36;;;;;;;;;;;;;;;;;;5058028;28;19966;-23
2023/03/11 00:30:01;;;;;;;;;;;;;;;;;;5058265;28;19973;-23
2023/03/11 00:32:27;;;;;;;;;;;;;;;;;;5057869;28;20386;-23
2023/03/11 00:34:53;;;;;;;;;;;;;;;;;;5057919;28;20258;-23
2023/03/11 00:37:19;;;;;;;;;;;;;;;;;;5058076;28;20039;-23
2023/03/11 00:39:45;;;;;;;;;;;;;;;;;;5057723;28;19912;-23
2023/03/11 00:42:11;;;;;;;;;;;;;;;;;;5057948;28;19909;-24
2023/03/11 00:44:37;;;;;;;;;;;;;;;;;;5057710;28;19932;-24
2023/03/11 00:47:03;;;;;;;;;;;;;;;;;;5057754;28;19919;-23
2023/03/11 00:49:29;;;;;;;;;;;;;;;;;;5057649;28;19913;-23
2023/03/11 00:51:55;;;;;;;;;;;;;;;;;;5057479;28;20282;-24
2023/03/11 00:54:21;;;;;;;;;;;;;;;;;;5057711;28;19958;-23
2023/03/11 00:56:47;;;;;;;;;;;;;;;;;;5057443;28;19915;-23
2023/03/11 00:59:13;;;;;;;;;;;;;;;;;;5057658;28;19925;-23
2023/03/11 01:01:39;;;;;;;;;;;;;;;;;;5057458;28;19959;-24
2023/03/11 01:04:05;;;;;;;;;;;;;;;;;;5057274;28;19931;-23
2023/03/11 01:06:31;;;;;;;;;;;;;;;;;;5056310;28;19981;-23
2023/03/11 01:08:57;;;;;;;;;;;;;;;;;;5057530;28;19909;-23
2023/03/11 01:11:23;;;;;;;;;;;;;;;;;;5057249;28;19913;-23
2023/03/11 01:13:49;;;;;;;;;;;;;;;;;;5057411;28;20335;-24
2023/03/11 01:16:15;;;;;;;;;;;;;;;;;;5057559;28;20239;-23
2023/03/11 01:18:41;;;;;;;;;;;;;;;;;;5057061;28;20348;-23
2023/03/11 01:21:07;;;;;;;;;;;;;;;;;;5057254;28;20320;-23
2023/03/11 01:23:33;;;;;;;;;;;;;;;;;;5056967;28;19944;-23
2023/03/11 01:25:59;;;;;;;;;;;;;;;;;;5057225;28;19909;-23
2023/03/11 01:28:25;;;;;;;;;;;;;;;;;;5056883;28;19947;-23
2023/03/11 01:30:51;;;;;;;;;;;;;;;;;;5056854;28;20258;-23
2023/03/11 01:33:17;;;;;;;;;;;;;;;;;;5057052;28;19915;-23
2023/03/11 01:35:43;;;;;;;;;;;;;;;;;;5057023;28;19908;-23
2023/03/11 01:38:09;;;;;;;;;;;;;;;;;;5056724;28;19908;-23
2023/03/11 01:40:35;;;;;;;;;;;;;;;;;;5056602;28;20241;-24
2023/03/11 01:43:01;;;;;;;;;;;;;;;;;;5056590;28;19955;-23
2023/03/11 01:45:27;;;;;;;;;;;;;;;;;;5056628;28;19913;-24
2023/03/11 01:47:52;;;;;;;;;;;;;;;;;;5056604;28;19919;-23
2023/03/11 01:50:19;;;;;;;;;;;;;;;;;;5056572;28;19935;-23
2023/03/11 01:52:44;;;;;;;;;;;;;;;;;;5056478;28;19916;-24
2023/03/11 01:55:10;;;;;;;;;;;;;;;;;;5055753;28;19913;-23
2023/03/11 01:57:36;;;;;;;;;;;;;;;;;;5056434;28;19915;-23
2023/03/11 02:00:04;;;;;;;;;;;;;;;;;;5056225;28;19913;-24
2023/03/11 02:02:30;;;;;;;;;;;;;;;;;;5056240;28;19912;-23
2023/03/11 02:04:56;;;;;;;;;;;;;;;;;;5055064;28;19974;-24
2023/03/11 02:07:22;;;;;;;;;;;;;;;;;;5056427;28;20056;-23
2023/03/11 02:09:48;;;;;;;;;;;;;;;;;;5056151;28;19993;-23
2023/03/11 02:12:14;;;;;;;;;;;;;;;;;;5055040;28;20034;-23
2023/03/11 02:14:40;;;;;;;;;;;;;;;;;;5056026;28;19939;-23
2023/03/11 02:17:06;;;;;;;;;;;;;;;;;;5056027;28;20296;-23
2023/03/11 02:19:32;;;;;;;;;;;;;;;;;;5055855;28;20201;-23
2023/03/11 02:21:58;;;;;;;;;;;;;;;;;;5055358;28;19909;-23
2023/03/11 02:24:24;;;;;;;;;;;;;;;;;;5056143;28;19974;-23
2023/03/11 02:26:50;;;;;;;;;;;;;;;;;;5055852;28;19912;-23
2023/03/11 02:29:16;;;;;;;;;;;;;;;;;;5055828;28;19913;-23
2023/03/11 02:31:42;;;;;;;;;;;;;;;;;;5055981;28;19973;-23
2023/03/11 02:34:08;;;;;;;;;;;;;;;;;;5055881;28;19909;-23
2023/03/11 02:36:34;;;;;;;;;;;;;;;;;;5055627;28;19910;-23
2023/03/11 02:39:00;;;;;;;;;;;;;;;;;;5055809;28;19972;-24
2023/03/11 02:41:26;;;;;;;;;;;;;;;;;;5055743;28;19909;-24
2023/03/11 02:43:52;;;;;;;;;;;;;;;;;;5054463;28;20332;-23
2023/03/11 02:46:18;;;;;;;;;;;;;;;;;;5055694;28;19919;-23
2023/03/11 02:48:44;;;;;;;;;;;;;;;;;;5054363;28;20339;-23
2023/03/11 02:51:10;;;;;;;;;;;;;;;;;;5055288;28;19934;-23
2023/03/11 02:53:36;;;;;;;;;;;;;;;;;;5055171;28;19909;-23
2023/03/11 02:56:02;;;;;;;;;;;;;;;;;;5055257;28;19908;-23
2023/03/11 02:58:28;;;;;;;;;;;;;;;;;;5055886;28;19908;-23
2023/03/11 03:00:53;;;;;;;;;;;;;;;;;;5055143;28;19909;-24
2023/03/11 03:03:19;;;;;;;;;;;;;;;;;;5053919;28;19915;-23
2023/03/11 03:05:45;;;;;;;;;;;;;;;;;;5055443;28;19904;-24
2023/03/11 03:08:11;;;;;;;;;;;;;;;;;;5055035;28;20403;-24
2023/03/11 03:10:37;;;;;;;;;;;;;;;;;;5055253;28;19955;-24
2023/03/11 03:13:03;;;;;;;;;;;;;;;;;;5054921;28;19909;-23
2023/03/11 03:15:29;;;;;;;;;;;;;;;;;;5054896;28;19919;-24
2023/03/11 03:17:55;;;;;;;;;;;;;;;;;;5054875;28;19909;-23
2023/03/11 03:20:21;;;;;;;;;;;;;;;;;;5053750;28;20016;-24
2023/03/11 03:22:47;;;;;;;;;;;;;;;;;;5054905;28;20364;-23
2023/03/11 03:25:13;;;;;;;;;;;;;;;;;;5054974;28;19909;-24
2023/03/11 03:27:39;;;;;;;;;;;;;;;;;;5054673;28;20015;-23
2023/03/11 03:30:05;;;;;;;;;;;;;;;;;;5054686;28;19909;-23
2023/03/11 03:32:31;;;;;;;;;;;;;;;;;;5054457;28;19951;-23
2023/03/11 03:34:58;;;;;;;;;;;;;;;;;;5054166;28;20008;-23
2023/03/11 03:37:24;;;;;;;;;;;;;;;;;;5054922;28;19990;-23
2023/03/11 03:39:49;;;;;;;;;;;;;;;;;;5054795;28;20250;-23
2023/03/11 03:42:15;;;;;;;;;;;;;;;;;;5054614;28;19927;-23
2023/03/11 03:44:41;;;;;;;;;;;;;;;;;;5054508;28;19908;-23
2023/03/11 03:47:07;;;;;;;;;;;;;;;;;;5054491;28;19919;-24
2023/03/11 03:49:33;;;;;;;;;;;;;;;;;;5054460;28;20011;-23
2023/03/11 03:51:59;;;;;;;;;;;;;;;;;;5054639;28;19920;-23
2023/03/11 03:54:25;;;;;;;;;;;;;;;;;;5054425;28;20063;-23
2023/03/11 03:56:51;;;;;;;;;;;;;;;;;;5054370;28;19909;-24
2023/03/11 03:59:17;;;;;;;;;;;;;;;;;;5054593;28;19913;-24
2023/03/11 04:01:43;;;;;;;;;;;;;;;;;;5054361;28;19966;-23
2023/03/11 04:04:09;;;;;;;;;;;;;;;;;;5054005;28;19921;-23
2023/03/11 04:06:35;;;;;;;;;;;;;;;;;;5054521;28;19920;-23
2023/03/11 04:09:01;;;;;;;;;;;;;;;;;;5054289;28;19923;-23
2023/03/11 04:11:27;;;;;;;;;;;;;;;;;;5054311;28;20286;-24
2023/03/11 04:13:53;;;;;;;;;;;;;;;;;;5054470;28;19987;-24
2023/03/11 04:16:19;;;;;;;;;;;;;;;;;;5054249;28;19909;-23
2023/03/11 04:18:45;;;;;;;;;;;;;;;;;;5054415;28;20308;-23
2023/03/11 04:21:11;;;;;;;;;;;;;;;;;;5054201;28;20023;-23
2023/03/11 04:23:37;;;;;;;;;;;;;;;;;;5054110;28;20328;-23
2023/03/11 04:26:03;;;;;;;;;;;;;;;;;;5054184;28;19916;-24
2023/03/11 04:28:28;;;;;;;;;;;;;;;;;;5055346;28;19936;-24
2023/03/11 04:30:54;;;;;;;;;;;;;;;;;;5054351;28;19916;-24
2023/03/11 04:33:20;;;;;;;;;;;;;;;;;;5053961;28;20362;-23
2023/03/11 04:35:46;;;;;;;;;;;;;;;;;;5054282;28;19936;-23
2023/03/11 04:38:12;;;;;;;;;;;;;;;;;;5053871;28;19909;-23
2023/03/11 04:40:38;;;;;;;;;;;;;;;;;;5053850;28;19923;-24
2023/03/11 04:43:04;;;;;;;;;;;;;;;;;;5053939;28;19912;-23
2023/03/11 04:45:30;;;;;;;;;;;;;;;;;;5056271;28;19967;-23
2023/03/11 04:47:56;;;;;;;;;;;;;;;;;;5057752;28;19963;-23
2023/03/11 04:50:22;;;;;;;;;;;;;;;;;;5057922;28;19912;-24
2023/03/11 04:52:48;;;;;;;;;;;;;;;;;;5057604;28;19916;-23
2023/03/11 04:55:14;;;;;;;;;;;;;;;;;;5057622;28;20382;-23
2023/03/11 04:57:40;;;;;;;;;;;;;;;;;;5057574;28;19975;-23
2023/03/11 05:00:10;;;;;;;;;;;;;;;;;;5057439;28;20009;-23
2023/03/11 05:02:36;;;;;;;;;;;;;;;;;;5056315;28;19952;-23
2023/03/11 05:05:02;;;;;;;;;;;;;;;;;;5057203;28;19947;-23
2023/03/11 05:07:28;;;;;;;;;;;;;;;;;;5057469;28;20002;-23
2023/03/11 05:09:54;;;;;;;;;;;;;;;;;;5057520;28;20008;-24
2023/03/11 05:12:20;;;;;;;;;;;;;;;;;;5057405;28;19920;-24
2023/03/11 05:14:46;;;;;;;;;;;;;;;;;;5057176;28;19913;-24
2023/03/11 05:17:13;;;;;;;;;;;;;;;;;;5057175;28;19909;-23
2023/03/11 05:19:39;;;;;;;;;;;;;;;;;;5057115;28;19913;-24
2023/03/11 05:22:05;;;;;;;;;;;;;;;;;;5055976;28;19908;-23
2023/03/11 05:24:31;;;;;;;;;;;;;;;;;;5057010;28;19909;-24
2023/03/11 05:26:57;;;;;;;;;;;;;;;;;;5056058;28;19909;-23
2023/03/11 05:29:23;;;;;;;;;;;;;;;;;;5056887;28;19908;-23
2023/03/11 05:31:49;;;;;;;;;;;;;;;;;;5056869;28;19913;-23
2023/03/11 05:34:15;;;;;;;;;;;;;;;;;;5057156;28;19909;-23
2023/03/11 05:36:41;;;;;;;;;;;;;;;;;;5056850;28;20288;-24
2023/03/11 05:39:07;;;;;;;;;;;;;;;;;;5057019;28;20059;-23
2023/03/11 05:41:33;;;;;;;;;;;;;;;;;;5056796;28;20244;-23
2023/03/11 05:43:59;;;;;;;;;;;;;;;;;;5056667;28;19909;-23
2023/03/11 05:46:25;;;;;;;;;;;;;;;;;;5056908;28;19909;-24
2023/03/11 05:48:51;;;;;;;;;;;;;;;;;;5056768;28;19913;-24
2023/03/11 05:51:16;;;;;;;;;;;;;;;;;;5056542;28;19909;-23
2023/03/11 05:53:47;;;;;;;;;;;;;;;;;;5056428;28;20229;-23
2023/03/11 05:56:12;;;;;;;;;;;;;;;;;;5055778;28;19908;-23
2023/03/11 05:58:38;;;;;;;;;;;;;;;;;;5056309;28;19931;-23
2023/03/11 06:01:04;;;;;;;;;;;;;;;;;;5055383;28;19909;-23
2023/03/11 06:03:30;;;;;;;;;;;;;;;;;;5056117;28;20015;-23
2023/03/11 06:05:56;;;;;;;;;;;;;;;;;;5056371;28;20328;-24
2023/03/11 06:08:22;;;;;;;;;;;;;;;;;;5056230;28;19951;-23
2023/03/11 06:10:48;;;;;;;;;;;;;;;;;;5056511;28;19909;-23
2023/03/11 06:13:14;;;;;;;;;;;;;;;;;;5056082;28;19999;-23
2023/03/11 06:15:40;;;;;;;;;;;;;;;;;;5056116;28;19913;-23
2023/03/11 06:18:06;;;;;;;;;;;;;;;;;;5056320;28;20051;-23
2023/03/11 06:20:32;;;;;;;;;;;;;;;;;;5056180;28;19916;-23
2023/03/11 06:22:58;;;;;;;;;;;;;;;;;;5056461;28;19909;-23
2023/03/11 06:25:24;;;;;;;;;;;;;;;;;;5054893;28;20446;-23
2023/03/11 06:27:51;;;;;;;;;;;;;;;;;;5056117;28;19999;-23
2023/03/11 06:30:17;;;;;;;;;;;;;;;;;;5056082;28;19913;-23
2023/03/11 06:32:43;;;;;;;;;;;;;;;;;;5055665;28;19909;-23
2023/03/11 06:35:09;;;;;;;;;;;;;;;;;;5055810;28;20411;-23
2023/03/11 06:37:35;;;;;;;;;;;;;;;;;;5055634;28;19944;-24
2023/03/11 06:40:01;;;;;;;;;;;;;;;;;;5055542;28;19912;-24
2023/03/11 06:42:27;;;;;;;;;;;;;;;;;;5055852;28;19920;-24
2023/03/11 06:44:53;;;;;;;;;;;;;;;;;;5055569;28;19916;-24
2023/03/11 06:47:19;;;;;;;;;;;;;;;;;;5055952;28;19913;-24
2023/03/11 06:49:45;;;;;;;;;;;;;;;;;;5055365;28;19967;-24
2023/03/11 06:52:11;;;;;;;;;;;;;;;;;;5055559;28;20336;-24
2023/03/11 06:54:37;;;;;;;;;;;;;;;;;;5055584;28;20339;-24
2023/03/11 06:57:03;;;;;;;;;;;;;;;;;;5055289;28;20421;-24
2023/03/11 06:59:29;;;;;;;;;;;;;;;;;;5055206;28;19912;-24
2023/03/11 07:01:55;;;;;;;;;;;;;;;;;;5055410;28;19913;-24
2023/03/11 07:04:21;;;;;;;;;;;;;;;;;;5055018;28;20371;-24
2023/03/11 07:06:47;;;;;;;;;;;;;;;;;;5055074;28;19909;-24
2023/03/11 07:09:13;;;;;;;;;;;;;;;;;;5054896;28;19909;-24
2023/03/11 07:11:39;;;;;;;;;;;;;;;;;;5055231;28;19909;-24
2023/03/11 07:14:05;;;;;;;;;;;;;;;;;;5054903;28;19909;-24
2023/03/11 07:16:31;;;;;;;;;;;;;;;;;;5053967;28;20272;-24
2023/03/11 07:18:57;;;;;;;;;;;;;;;;;;5054858;28;19919;-24
2023/03/11 07:21:23;;;;;;;;;;;;;;;;;;5055184;28;20239;-24
2023/03/11 07:23:49;;;;;;;;;;;;;;;;;;5054769;28;19909;-24
2023/03/11 07:26:16;;;;;;;;;;;;;;;;;;5054806;28;19920;-24
2023/03/11 07:28:43;;;;;;;;;;;;;;;;;;5055073;28;19909;-23
2023/03/11 07:31:09;;;;;;;;;;;;;;;;;;5053817;28;20243;-23
2023/03/11 07:33:35;;;;;;;;;;;;;;;;;;5053655;28;19916;-23
2023/03/11 07:36:01;;;;;;;;;;;;;;;;;;5054687;28;20296;-24
2023/03/11 07:38:27;;;;;;;;;;;;;;;;;;5054925;28;19920;-24
2023/03/11 07:40:53;;;;;;;;;;;;;;;;;;5053515;28;20318;-23
2023/03/11 07:43:19;;;;;;;;;;;;;;;;;;5054439;28;20291;-23
2023/03/11 07:45:45;;;;;;;;;;;;;;;;;;5054709;28;19970;-23
2023/03/11 07:48:11;;;;;;;;;;;;;;;;;;5054735;28;19924;-23
2023/03/11 07:50:37;;;;;;;;;;;;;;;;;;5054460;28;19908;-24
2023/03/11 07:53:03;;;;;;;;;;;;;;;;;;5054493;28;19909;-33
2023/03/11 07:55:29;;;;;;;;;;;;;;;;;;5054110;28;19913;-24
2023/03/11 07:57:55;;;;;;;;;;;;;;;;;;5053379;28;20294;-23
2023/03/11 08:00:21;;;;;;;;;;;;;;;;;;5054357;28;19928;-23
2023/03/11 08:02:46;;;;;;;;;;;;;;;;;;5054276;28;19916;-23
2023/03/11 08:05:12;;;;;;;;;;;;;;;;;;5054211;28;20011;-23
2023/03/11 08:07:38;;;;;;;;;;;;;;;;;;5054638;28;19959;-24
2023/03/11 08:10:04;;;;;;;;;;;;;;;;;;5054302;28;19913;-23
2023/03/11 08:12:30;;;;;;;;;;;;;;;;;;5054218;28;19943;-24
2023/03/11 08:14:56;;;;;;;;;;;;;;;;;;5054343;28;20406;-23
2023/03/11 08:17:22;;;;;;;;;;;;;;;;;;5054202;28;20328;-23
2023/03/11 08:19:48;;;;;;;;;;;;;;;;;;5055610;28;19921;-23
2023/03/11 08:22:14;;;;;;;;;;;;;;;;;;5058128;28;20233;-23
2023/03/11 08:24:41;;;;;;;;;;;;;;;;;;5057125;28;19912;-23
2023/03/11 08:27:08;;;;;;;;;;;;;;;;;;5058181;28;20263;-24
2023/03/11 08:29:34;;;;;;;;;;;;;;;;;;5058368;28;19919;-24
2023/03/11 08:32:00;;;;;;;;;;;;;;;;;;5057971;28;19913;-23
2023/03/11 08:34:26;;;;;;;;;;;;;;;;;;5058266;28;20013;-23
2023/03/11 08:36:52;;;;;;;;;;;;;;;;;;5058202;28;19963;-24
2023/03/11 08:39:18;;;;;;;;;;;;;;;;;;5057801;28;19956;-23
2023/03/11 08:41:44;;;;;;;;;;;;;;;;;;5058521;28;19935;-23
2023/03/11 08:44:10;;;;;;;;;;;;;;;;;;5057729;28;19923;-24
2023/03/11 08:46:37;;;;;;;;;;;;;;;;;;5057760;28;19947;-23
2023/03/11 08:49:03;;;;;;;;;;;;;;;;;;5056789;28;20274;-23
2023/03/11 08:51:29;;;;;;;;;;;;;;;;;;5057715;28;19909;-23
2023/03/11 08:53:55;;;;;;;;;;;;;;;;;;5057553;28;20004;-23
2023/03/11 08:56:21;;;;;;;;;;;;;;;;;;5057579;28;19913;-23
2023/03/11 08:58:47;;;;;;;;;;;;;;;;;;5057417;28;19936;-23
2023/03/11 09:01:13;;;;;;;;;;;;;;;;;;5057484;28;19908;-23
2023/03/11 09:03:39;;;;;;;;;;;;;;;;;;5059058;28;19920;-23
2023/03/11 09:06:05;;;;;;;;;;;;;;;;;;5059342;28;19917;-23
2023/03/11 09:08:31;;;;;;;;;;;;;;;;;;5057251;28;19909;-24
2023/03/11 09:10:57;;;;;;;;;;;;;;;;;;5057207;28;20299;-23
2023/03/11 09:13:23;;;;;;;;;;;;;;;;;;5057271;28;19909;-23
2023/03/11 09:15:49;;;;;;;;;;;;;;;;;;5057240;28;20012;-23
2023/03/11 09:18:15;;;;;;;;;;;;;;;;;;5057476;28;19908;-23
2023/03/11 09:20:41;;;;;;;;;;;;;;;;;;5057121;28;19912;-24
2023/03/11 09:23:07;;;;;;;;;;;;;;;;;;5058140;28;19916;-24
2023/03/11 09:25:33;;;;;;;;;;;;;;;;;;5057134;28;19915;-23
2023/03/11 09:27:59;;;;;;;;;;;;;;;;;;5057066;28;20303;-24
2023/03/11 09:30:25;;;;;;;;;;;;;;;;;;5056706;28;19951;-24
2023/03/11 09:32:51;;;;;;;;;;;;;;;;;;5055916;28;20267;-24
2023/03/11 09:35:17;;;;;;;;;;;;;;;;;;5056978;28;19909;-24
2023/03/11 09:37:43;;;;;;;;;;;;;;;;;;5056804;28;19916;-24
2023/03/11 09:40:09;;;;;;;;;;;;;;;;;;5056583;28;19924;-24
2023/03/11 09:42:35;;;;;;;;;;;;;;;;;;5056637;28;19909;-24
2023/03/11 09:45:01;;;;;;;;;;;;;;;;;;5056657;28;19912;-24
2023/03/11 09:47:27;;;;;;;;;;;;;;;;;;5056608;28;20395;-24
2023/03/11 09:49:52;;;;;;;;;;;;;;;;;;5056798;28;19915;-24
2023/03/11 09:52:18;;;;;;;;;;;;;;;;;;5057136;28;19909;-24
2023/03/11 09:54:44;;;;;;;;;;;;;;;;;;5056519;28;19909;-24
2023/03/11 09:57:10;;;;;;;;;;;;;;;;;;5056495;28;19923;-24
2023/03/11 09:59:36;;;;;;;;;;;;;;;;;;5056295;28;19917;-24
2023/03/11 10:02:02;;;;;;;;;;;;;;;;;;5056523;28;19958;-24
2023/03/11 10:04:28;;;;;;;;;;;;;;;;;;5056361;28;19913;-24
2023/03/11 10:06:54;;;;;;;;;;;;;;;;;;5056574;28;19916;-24
2023/03/11 10:09:20;;;;;;;;;;;;;;;;;;5056140;28;20320;-24
2023/03/11 10:11:46;;;;;;;;;;;;;;;;;;5056109;28;20003;-24
2023/03/11 10:14:12;;;;;;;;;;;;;;;;;;5056362;28;19980;-24
2023/03/11 10:16:38;;;;;;;;;;;;;;;;;;5056366;28;19909;-24
2023/03/11 10:19:04;;;;;;;;;;;;;;;;;;5056011;28;20209;-24
2023/03/11 10:21:30;;;;;;;;;;;;;;;;;;5056268;28;19970;-24
2023/03/11 10:23:56;;;;;;;;;;;;;;;;;;5055834;28;19909;-24
2023/03/11 10:26:22;;;;;;;;;;;;;;;;;;5056093;28;19935;-24
2023/03/11 10:28:48;;;;;;;;;;;;;;;;;;5055803;28;20004;-24
2023/03/11 10:31:17;;;;;;;;;;;;;;;;;;5054841;28;19909;-24
2023/03/11 10:33:43;;;;;;;;;;;;;;;;;;5055771;28;19940;-24
2023/03/11 10:36:09;;;;;;;;;;;;;;;;;;5055796;28;19909;-24
2023/03/11 10:38:35;;;;;;;;;;;;;;;;;;5055993;28;20326;-24
2023/03/11 10:41:01;;;;;;;;;;;;;;;;;;5055810;28;20011;-24
2023/03/11 10:43:27;;;;;;;;;;;;;;;;;;5055121;28;20202;-24
2023/03/11 10:45:53;;;;;;;;;;;;;;;;;;5055547;28;19931;-24
2023/03/11 10:48:19;;;;;;;;;;;;;;;;;;5055481;28;19909;-24
2023/03/11 10:50:45;;;;;;;;;;;;;;;;;;5055672;28;19971;-24
2023/03/11 10:53:11;;;;;;;;;;;;;;;;;;5055289;28;20351;-24
2023/03/11 10:55:37;;;;;;;;;;;;;;;;;;5055300;28;19909;-24
2023/03/11 10:58:03;;;;;;;;;;;;;;;;;;5055280;28;19909;-24
2023/03/11 11:00:30;;;;;;;;;;;;;;;;;;5055162;28;19913;-24
2023/03/11 11:02:57;;;;;;;;;;;;;;;;;;5055409;28;19992;-24
2023/03/11 11:05:22;;;;;;;;;;;;;;;;;;5054922;28;19927;-24
2023/03/11 11:07:49;;;;;;;;;;;;;;;;;;5055409;28;19909;-24
2023/03/11 11:10:15;;;;;;;;;;;;;;;;;;5055127;28;19908;-24
2023/03/11 11:12:41;;;;;;;;;;;;;;;;;;5054942;28;20322;-24
2023/03/11 11:15:07;;;;;;;;;;;;;;;;;;5055250;28;19957;-24
2023/03/11 11:17:33;;;;;;;;;;;;;;;;;;5054969;28;19909;-24
2023/03/11 11:19:59;;;;;;;;;;;;;;;;;;5054838;28;20304;-24
2023/03/11 11:22:26;;;;;;;;;;;;;;;;;;5053727;28;20214;-24
2023/03/11 11:24:52;;;;;;;;;;;;;;;;;;5055102;28;19908;-23
2023/03/11 11:27:19;;;;;;;;;;;;;;;;;;5054926;28;19913;-23
2023/03/11 11:29:45;;;;;;;;;;;;;;;;;;5055027;28;19996;-23
2023/03/11 11:32:11;;;;;;;;;;;;;;;;;;5054628;28;19909;-23
2023/03/11 11:34:37;;;;;;;;;;;;;;;;;;5055013;28;19919;-23
2023/03/11 11:37:03;;;;;;;;;;;;;;;;;;5054673;28;20259;-24
2023/03/11 11:39:29;;;;;;;;;;;;;;;;;;5054552;28;19913;-24
2023/03/11 11:41:55;;;;;;;;;;;;;;;;;;5054554;28;19913;-24
2023/03/11 11:44:21;;;;;;;;;;;;;;;;;;5054510;28;19909;-24
2023/03/11 11:46:47;;;;;;;;;;;;;;;;;;5054597;28;19920;-23
2023/03/11 11:49:13;;;;;;;;;;;;;;;;;;5054587;28;19971;-23
2023/03/11 11:51:39;;;;;;;;;;;;;;;;;;5054811;28;19915;-23
2023/03/11 11:54:06;;;;;;;;;;;;;;;;;;5053866;28;20399;-23
2023/03/11 11:56:32;;;;;;;;;;;;;;;;;;5054537;28;19912;-23
2023/03/11 11:58:57;;;;;;;;;;;;;;;;;;5054421;28;19909;-23
2023/03/11 12:01:23;;;;;;;;;;;;;;;;;;5054448;28;20284;-23
2023/03/11 12:03:49;;;;;;;;;;;;;;;;;;5054254;28;20359;-23
2023/03/11 12:06:15;;;;;;;;;;;;;;;;;;5054247;28;20011;-23
2023/03/11 12:08:41;;;;;;;;;;;;;;;;;;5054571;28;19908;-24
2023/03/11 12:11:07;;;;;;;;;;;;;;;;;;5054588;28;19909;-23
2023/03/11 12:13:33;;;;;;;;;;;;;;;;;;5054258;28;19934;-23
2023/03/11 12:15:59;;;;;;;;;;;;;;;;;;5054531;28;20007;-24
2023/03/11 12:18:25;;;;;;;;;;;;;;;;;;5054430;28;19912;-23
2023/03/11 12:20:51;;;;;;;;;;;;;;;;;;5054170;28;19939;-23
2023/03/11 12:23:17;;;;;;;;;;;;;;;;;;5054428;28;20244;-23
2023/03/11 12:25:43;;;;;;;;;;;;;;;;;;5054465;28;19909;-23
2023/03/11 12:28:09;;;;;;;;;;;;;;;;;;5054431;28;20298;-23
2023/03/11 12:30:38;;;;;;;;;;;;;;;;;;5054136;28;19909;-23
2023/03/11 12:33:04;;;;;;;;;;;;;;;;;;5054066;28;19908;-24
2023/03/11 12:35:30;;;;;;;;;;;;;;;;;;5054103;28;19909;-24
2023/03/11 12:37:56;;;;;;;;;;;;;;;;;;5054142;28;19909;-24
2023/03/11 12:40:22;;;;;;;;;;;;;;;;;;5054001;28;20008;-23
2023/03/11 12:42:48;;;;;;;;;;;;;;;;;;5053963;28;19959;-23
2023/03/11 12:45:14;;;;;;;;;;;;;;;;;;5054016;28;19920;-24
2023/03/11 12:47:40;;;;;;;;;;;;;;;;;;5053972;28;19908;-24
2023/03/11 12:50:05;;;;;;;;;;;;;;;;;;5054207;28;19978;-23
2023/03/11 12:52:33;;;;;;;;;;;;;;;;;;5053858;28;19909;-24
2023/03/11 12:54:59;;;;;;;;;;;;;;;;;;5053813;28;19908;-23
2023/03/11 12:57:25;;;;;;;;;;;;;;;;;;5053897;28;19909;-24
2023/03/11 12:59:52;;;;;;;;;;;;;;;;;;5053834;28;19920;-23
2023/03/11 13:02:18;;;;;;;;;;;;;;;;;;5054117;28;19920;-24
2023/03/11 13:04:44;;;;;;;;;;;;;;;;;;5053621;28;19921;-24
2023/03/11 13:07:11;;;;;;;;;;;;;;;;;;5057105;28;19909;-24
2023/03/11 13:09:37;;;;;;;;;;;;;;;;;;5057418;28;19944;-24
2023/03/11 13:12:03;;;;;;;;;;;;;;;;;;5057226;28;19916;-23
2023/03/11 13:14:29;;;;;;;;;;;;;;;;;;5057559;28;19916;-23
2023/03/11 13:16:55;;;;;;;;;;;;;;;;;;5057941;28;19909;-24
2023/03/11 13:19:21;;;;;;;;;;;;;;;;;;5056136;28;20274;-24
2023/03/11 13:21:46;;;;;;;;;;;;;;;;;;5057428;28;19956;-24
2023/03/11 13:24:12;;;;;;;;;;;;;;;;;;5057382;28;19908;-24
2023/03/11 13:26:39;;;;;;;;;;;;;;;;;;5057419;28;20012;-24
2023/03/11 13:29:04;;;;;;;;;;;;;;;;;;5056057;28;19928;-24
2023/03/11 13:31:30;;;;;;;;;;;;;;;;;;5056957;28;19912;-23
2023/03/11 13:33:56;;;;;;;;;;;;;;;;;;5056864;28;19955;-24
2023/03/11 13:36:22;;;;;;;;;;;;;;;;;;5056957;28;19967;-23
2023/03/11 13:38:48;;;;;;;;;;;;;;;;;;5056835;28;20011;-23
2023/03/11 13:41:14;;;;;;;;;;;;;;;;;;5056767;28;19973;-23
2023/03/11 13:43:40;;;;;;;;;;;;;;;;;;5056739;28;19916;-24
2023/03/11 13:46:06;;;;;;;;;;;;;;;;;;5056720;28;19921;-24
2023/03/11 13:48:32;;;;;;;;;;;;;;;;;;5056985;28;19996;-23
2023/03/11 13:50:58;;;;;;;;;;;;;;;;;;5056679;28;20264;-24
2023/03/11 13:53:24;;;;;;;;;;;;;;;;;;5056717;28;19936;-24
2023/03/11 13:55:50;;;;;;;;;;;;;;;;;;5056625;28;19909;-24
2023/03/11 13:58:16;;;;;;;;;;;;;;;;;;5056559;28;20011;-23
2023/03/11 14:00:42;;;;;;;;;;;;;;;;;;5056664;28;19913;-23
2023/03/11 14:03:08;;;;;;;;;;;;;;;;;;5055351;28;19912;-23
2023/03/11 14:05:34;;;;;;;;;;;;;;;;;;5055203;28;19921;-23
2023/03/11 14:08:00;;;;;;;;;;;;;;;;;;5056502;28;19920;-23
2023/03/11 14:10:26;;;;;;;;;;;;;;;;;;5056217;28;19980;-23
2023/03/11 14:12:52;;;;;;;;;;;;;;;;;;5056398;28;19920;-23
2023/03/11 14:15:18;;;;;;;;;;;;;;;;;;5056164;28;19991;-24
2023/03/11 14:17:44;;;;;;;;;;;;;;;;;;5055623;28;19940;-23
2023/03/11 14:20:10;;;;;;;;;;;;;;;;;;5056252;28;19914;-23
2023/03/11 14:22:36;;;;;;;;;;;;;;;;;;5056157;28;19908;-23
2023/03/11 14:25:02;;;;;;;;;;;;;;;;;;5056235;28;19919;-23
2023/03/11 14:27:28;;;;;;;;;;;;;;;;;;5055985;28;19959;-23
2023/03/11 14:29:54;;;;;;;;;;;;;;;;;;5055978;28;19909;-23
2023/03/11 14:32:20;;;;;;;;;;;;;;;;;;5055736;28;19919;-24
2023/03/11 14:34:46;;;;;;;;;;;;;;;;;;5056052;28;20320;-24
2023/03/11 14:37:12;;;;;;;;;;;;;;;;;;5056014;28;19909;-24
2023/03/11 14:39:38;;;;;;;;;;;;;;;;;;5055551;28;20336;-24
2023/03/11 14:42:04;;;;;;;;;;;;;;;;;;5055697;28;19920;-23
2023/03/11 14:44:30;;;;;;;;;;;;;;;;;;5055539;28;19913;-24
2023/03/11 14:46:56;;;;;;;;;;;;;;;;;;5056039;28;19920;-24
2023/03/11 14:49:22;;;;;;;;;;;;;;;;;;5055501;28;20219;-23
2023/03/11 14:51:48;;;;;;;;;;;;;;;;;;5055697;28;20231;-23
2023/03/11 14:54:15;;;;;;;;;;;;;;;;;;5055400;28;20291;-24
2023/03/11 14:56:42;;;;;;;;;;;;;;;;;;5055691;28;20286;-24
2023/03/11 14:59:08;;;;;;;;;;;;;;;;;;5055509;28;19909;-24
2023/03/11 15:01:33;;;;;;;;;;;;;;;;;;5055353;28;20259;-24
2023/03/11 15:03:59;;;;;;;;;;;;;;;;;;5055148;28;19909;-24
2023/03/11 15:06:25;;;;;;;;;;;;;;;;;;5055284;28;19928;-24
2023/03/11 15:08:51;;;;;;;;;;;;;;;;;;5055457;28;19974;-23
2023/03/11 15:11:17;;;;;;;;;;;;;;;;;;5055176;28;19916;-24
2023/03/11 15:13:46;;;;;;;;;;;;;;;;;;5055089;28;20353;-29
2023/03/11 15:16:12;;;;;;;;;;;;;;;;;;5054076;28;19920;-23
2023/03/11 15:18:38;;;;;;;;;;;;;;;;;;5055001;28;19909;-24
2023/03/11 15:21:04;;;;;;;;;;;;;;;;;;5054846;28;19963;-24
2023/03/11 15:23:30;;;;;;;;;;;;;;;;;;5055094;28;20358;-24
2023/03/11 15:25:56;;;;;;;;;;;;;;;;;;5054831;28;19908;-24
2023/03/11 15:28:23;;;;;;;;;;;;;;;;;;5054790;28;20295;-24
2023/03/11 15:30:49;;;;;;;;;;;;;;;;;;5054799;28;20249;-24
2023/03/11 15:33:15;;;;;;;;;;;;;;;;;;5054668;28;19909;-24
2023/03/11 15:35:40;;;;;;;;;;;;;;;;;;5054803;28;20233;-24
2023/03/11 15:38:06;;;;;;;;;;;;;;;;;;5054695;28;19913;-24
2023/03/11 15:40:33;;;;;;;;;;;;;;;;;;5054888;28;19913;-24
2023/03/11 15:42:59;;;;;;;;;;;;;;;;;;5054858;28;19956;-24
2023/03/11 15:45:25;;;;;;;;;;;;;;;;;;5054874;28;19909;-24
2023/03/11 15:47:51;;;;;;;;;;;;;;;;;;5054619;28;19916;-24
2023/03/11 15:50:18;;;;;;;;;;;;;;;;;;5054768;28;19909;-23
2023/03/11 15:52:44;;;;;;;;;;;;;;;;;;5054749;28;20212;-23
2023/03/11 15:55:10;;;;;;;;;;;;;;;;;;5054818;28;20216;-24
2023/03/11 15:57:36;;;;;;;;;;;;;;;;;;5054413;28;19915;-24
2023/03/11 16:00:02;;;;;;;;;;;;;;;;;;5054360;28;20019;-24
2023/03/11 16:02:28;;;;;;;;;;;;;;;;;;5054488;28;19909;-25
2023/03/11 16:04:54;;;;;;;;;;;;;;;;;;5054230;28;19916;-23
2023/03/11 16:07:19;;;;;;;;;;;;;;;;;;5054636;28;20342;-23
2023/03/11 16:09:45;;;;;;;;;;;;;;;;;;5054279;28;19909;-23
2023/03/11 16:12:11;;;;;;;;;;;;;;;;;;5053763;28;19909;-23
2023/03/11 16:14:37;;;;;;;;;;;;;;;;;;5054300;28;19920;-24
2023/03/11 16:17:03;;;;;;;;;;;;;;;;;;5054490;28;19925;-23
2023/03/11 16:19:29;;;;;;;;;;;;;;;;;;5054479;28;19942;-24
2023/03/11 16:21:55;;;;;;;;;;;;;;;;;;5054440;28;20251;-24
2023/03/11 16:24:21;;;;;;;;;;;;;;;;;;5053207;28;20256;-24
2023/03/11 16:26:48;;;;;;;;;;;;;;;;;;5054269;28;19935;-23
2023/03/11 16:29:16;;;;;;;;;;;;;;;;;;5054144;28;19916;-24
2023/03/11 16:31:42;;;;;;;;;;;;;;;;;;5053202;28;19919;-24
2023/03/11 16:34:08;;;;;;;;;;;;;;;;;;5053101;28;20266;-24
2023/03/11 16:36:34;;;;;;;;;;;;;;;;;;5054049;28;19909;-23